Helemano Mltry Reservation, Hawaii
Current Conditions -  °F | °C
As of 2:58 PM on Tuesday 21 Oct 2014 (Local Time) from PHHI Reporting Station
Clear Clear  
Wind Chill: 84°   Ceiling: Unl
Heat Index: 88°   Visibility: 10mi
Dew Point: 69°   Wind: 10mph
Humidity: 60%   Direction: 80°E
Pressure: 29.96"   Gusts: NA
Location:  21.4794°N, 158.1°W
Report Text: PHHI 220058Z AUTO 08009KT 10SM CLR 29/20 A2996 RMK AO2 SLPNO T02900204 $
Loading
Personal Weather Stations






























Interactive Weather Map New forecast layout! Learn more

10-Day Weather Forecast

Advertisements
Track Severe Weather on mobile